Valle Escondido, Puerto Rico
Current Conditions -  °F | °C
As of 3:53 AM on Monday 24 Nov 2014 (Local Time) from TJNR Reporting Station
Few Clouds Few Clouds  
Wind Chill: 80°   Ceiling: Unl
Heat Index: 84°   Visibility: 10mi
Dew Point: 72°   Wind: 10mph
Humidity: 76%   Direction: 80°E
Pressure: 30.01"   Gusts: NA
Location:  18.1494°N, 65.8294°W
Report Text: TJNR 240753Z AUTO 08009KT 10SM FEW065 27/22 A3001 RMK AO2 RAE0659 SLP163 P0000 T02670222 $
Loading
Personal Weather Stations






























Interactive Weather Map New forecast layout! Learn more

10-Day Weather Forecast

Advertisements
Track Severe Weather on mobile